sensor_id;sensor_type;location;lat;lon;timestamp;pressure;altitude;pressure_sealevel;temperature;humidity
74065;BME280;62421;51.412;5.432;2023-04-30T00:01:40;102182.75;;;7.88;95.90
74065;BME280;62421;51.412;5.432;2023-04-30T00:04:06;102186.22;;;7.90;96.08
74065;BME280;62421;51.412;5.432;2023-04-30T00:06:31;102191.75;;;7.85;96.72
74065;BME280;62421;51.412;5.432;2023-04-30T00:08:57;102182.03;;;7.83;96.88
74065;BME280;62421;51.412;5.432;2023-04-30T00:11:22;102185.63;;;7.82;97.03
74065;BME280;62421;51.412;5.432;2023-04-30T00:13:50;102184.88;;;7.78;97.94
74065;BME280;62421;51.412;5.432;2023-04-30T00:16:16;102182.31;;;7.75;97.37
74065;BME280;62421;51.412;5.432;2023-04-30T00:18:41;102193.19;;;7.70;97.73
74065;BME280;62421;51.412;5.432;2023-04-30T00:21:06;102191.59;;;7.65;98.19
74065;BME280;62421;51.412;5.432;2023-04-30T00:23:32;102187.19;;;7.64;98.71
74065;BME280;62421;51.412;5.432;2023-04-30T00:25:57;102183.81;;;7.58;99.39
74065;BME280;62421;51.412;5.432;2023-04-30T00:28:23;102197.28;;;7.55;99.37
74065;BME280;62421;51.412;5.432;2023-04-30T00:30:48;102193.72;;;7.55;100.00
74065;BME280;62421;51.412;5.432;2023-04-30T00:33:13;102199.88;;;7.57;100.00
74065;BME280;62421;51.412;5.432;2023-04-30T00:35:39;102194.53;;;7.57;100.00
74065;BME280;62421;51.412;5.432;2023-04-30T00:38:04;102192.81;;;7.56;100.00
74065;BME280;62421;51.412;5.432;2023-04-30T00:40:30;102188.53;;;7.50;100.00
74065;BME280;62421;51.412;5.432;2023-04-30T00:42:57;102195.88;;;7.45;100.00
74065;BME280;62421;51.412;5.432;2023-04-30T00:45:23;102190.69;;;7.41;100.00
74065;BME280;62421;51.412;5.432;2023-04-30T00:47:48;102196.94;;;7.39;100.00
74065;BME280;62421;51.412;5.432;2023-04-30T00:50:14;102195.16;;;7.40;100.00
74065;BME280;62421;51.412;5.432;2023-04-30T00:52:41;102196.00;;;7.42;100.00
74065;BME280;62421;51.412;5.432;2023-04-30T00:55:07;102196.06;;;7.39;100.00
74065;BME280;62421;51.412;5.432;2023-04-30T00:57:34;102196.25;;;7.34;100.00
74065;BME280;62421;51.412;5.432;2023-04-30T01:00:00;102186.47;;;7.33;100.00
74065;BME280;62421;51.412;5.432;2023-04-30T01:02:26;102182.09;;;7.31;100.00
74065;BME280;62421;51.412;5.432;2023-04-30T01:04:51;102182.22;;;7.28;100.00
74065;BME280;62421;51.412;5.432;2023-04-30T01:07:17;102185.94;;;7.24;100.00
74065;BME280;62421;51.412;5.432;2023-04-30T01:09:42;102185.16;;;7.20;100.00
74065;BME280;62421;51.412;5.432;2023-04-30T01:12:09;102179.06;;;7.16;100.00
74065;BME280;62421;51.412;5.432;2023-04-30T01:15:39;102172.09;;;7.12;100.00
74065;BME280;62421;51.412;5.432;2023-04-30T01:20:15;102174.28;;;7.00;100.00
74065;BME280;62421;51.412;5.432;2023-04-30T01:22:56;102185.19;;;6.93;100.00
74065;BME280;62421;51.412;5.432;2023-04-30T01:25:34;102176.47;;;6.88;100.00
74065;BME280;62421;51.412;5.432;2023-04-30T01:28:09;102177.41;;;6.86;100.00
74065;BME280;62421;51.412;5.432;2023-04-30T01:30:37;102181.94;;;6.84;100.00
74065;BME280;62421;51.412;5.432;2023-04-30T01:33:04;102175.00;;;6.78;100.00
74065;BME280;62421;51.412;5.432;2023-04-30T01:40:51;102184.28;;;6.66;100.00
74065;BME280;62421;51.412;5.432;2023-04-30T01:43:43;102179.91;;;6.64;100.00
74065;BME280;62421;51.412;5.432;2023-04-30T01:46:23;102178.22;;;6.61;100.00
74065;BME280;62421;51.412;5.432;2023-04-30T01:49:12;102173.94;;;6.55;100.00
74065;BME280;62421;51.412;5.432;2023-04-30T01:51:41;102174.88;;;6.54;100.00
74065;BME280;62421;51.412;5.432;2023-04-30T01:54:16;102184.78;;;6.51;100.00
74065;BME280;62421;51.412;5.432;2023-04-30T01:57:02;102184.88;;;6.48;100.00
74065;BME280;62421;51.412;5.432;2023-04-30T01:59:31;102173.38;;;6.46;100.00
74065;BME280;62421;51.412;5.432;2023-04-30T02:01:57;102176.13;;;6.43;100.00
74065;BME280;62421;51.412;5.432;2023-04-30T02:04:22;102179.81;;;6.39;100.00
74065;BME280;62421;51.412;5.432;2023-04-30T02:06:48;102189.72;;;6.35;100.00
74065;BME280;62421;51.412;5.432;2023-04-30T02:09:13;102193.31;;;6.34;100.00
74065;BME280;62421;51.412;5.432;2023-04-30T02:11:39;102193.38;;;6.32;100.00
74065;BME280;62421;51.412;5.432;2023-04-30T02:14:04;102192.53;;;6.30;100.00
74065;BME280;62421;51.412;5.432;2023-04-30T02:16:30;102196.97;;;6.30;100.00
74065;BME280;62421;51.412;5.432;2023-04-30T02:18:55;102193.44;;;6.29;100.00
74065;BME280;62421;51.412;5.432;2023-04-30T02:21:21;102195.25;;;6.29;100.00
74065;BME280;62421;51.412;5.432;2023-04-30T02:23:46;102201.56;;;6.26;100.00
74065;BME280;62421;51.412;5.432;2023-04-30T02:26:12;102199.84;;;6.24;100.00
74065;BME280;62421;51.412;5.432;2023-04-30T02:28:37;102202.59;;;6.21;100.00
74065;BME280;62421;51.412;5.432;2023-04-30T02:31:02;102203.53;;;6.20;100.00
74065;BME280;62421;51.412;5.432;2023-04-30T02:33:28;102194.66;;;6.19;100.00
74065;BME280;62421;51.412;5.432;2023-04-30T02:35:53;102196.47;;;6.17;100.00
74065;BME280;62421;51.412;5.432;2023-04-30T02:38:19;102201.81;;;6.17;100.00
74065;BME280;62421;51.412;5.432;2023-04-30T02:40:45;102200.09;;;6.16;100.00
74065;BME280;62421;51.412;5.432;2023-04-30T02:43:10;102199.22;;;6.15;100.00
74065;BME280;62421;51.412;5.432;2023-04-30T02:45:35;102188.63;;;6.12;100.00
74065;BME280;62421;51.412;5.432;2023-04-30T02:48:01;102196.69;;;6.11;100.00
74065;BME280;62421;51.412;5.432;2023-04-30T02:50:26;102199.47;;;6.06;100.00
74065;BME280;62421;51.412;5.432;2023-04-30T02:52:52;102193.38;;;6.03;100.00
74065;BME280;62421;51.412;5.432;2023-04-30T02:55:17;102204.03;;;6.03;100.00
74065;BME280;62421;51.412;5.432;2023-04-30T02:57:43;102196.03;;;6.03;100.00
74065;BME280;62421;51.412;5.432;2023-04-30T03:00:08;102197.00;;;6.00;100.00
74065;BME280;62421;51.412;5.432;2023-04-30T03:02:34;102198.88;;;5.97;100.00
74065;BME280;62421;51.412;5.432;2023-04-30T03:04:59;102198.06;;;5.93;100.00
74065;BME280;62421;51.412;5.432;2023-04-30T03:07:24;102194.56;;;5.91;100.00
74065;BME280;62421;51.412;5.432;2023-04-30T03:09:50;102188.50;;;5.86;100.00
74065;BME280;62421;51.412;5.432;2023-04-30T03:12:15;102187.75;;;5.81;100.00
74065;BME280;62421;51.412;5.432;2023-04-30T03:14:41;102186.09;;;5.77;100.00
74065;BME280;62421;51.412;5.432;2023-04-30T03:17:06;102182.59;;;5.74;100.00
74065;BME280;62421;51.412;5.432;2023-04-30T03:19:31;102188.94;;;5.70;100.00
74065;BME280;62421;51.412;5.432;2023-04-30T03:21:57;102185.44;;;5.68;100.00
74065;BME280;62421;51.412;5.432;2023-04-30T03:24:22;102187.25;;;5.68;100.00
74065;BME280;62421;51.412;5.432;2023-04-30T03:26:49;102182.84;;;5.65;100.00
74065;BME280;62421;51.412;5.432;2023-04-30T03:29:15;102182.13;;;5.60;100.00
74065;BME280;62421;51.412;5.432;2023-04-30T03:31:40;102184.88;;;5.57;100.00
74065;BME280;62421;51.412;5.432;2023-04-30T03:34:06;102180.44;;;5.56;100.00
74065;BME280;62421;51.412;5.432;2023-04-30T03:36:31;102177.06;;;5.51;100.00
74065;BME280;62421;51.412;5.432;2023-04-30T03:38:57;102173.56;;;5.49;100.00
74065;BME280;62421;51.412;5.432;2023-04-30T03:41:23;102182.50;;;5.46;100.00
74065;BME280;62421;51.412;5.432;2023-04-30T03:43:48;102183.50;;;5.42;100.00
74065;BME280;62421;51.412;5.432;2023-04-30T03:46:14;102175.59;;;5.39;100.00
74065;BME280;62421;51.412;5.432;2023-04-30T03:48:39;102180.03;;;5.39;100.00
74065;BME280;62421;51.412;5.432;2023-04-30T03:51:04;102192.53;;;5.37;100.00
74065;BME280;62421;51.412;5.432;2023-04-30T03:53:30;102193.47;;;5.36;100.00
74065;BME280;62421;51.412;5.432;2023-04-30T03:55:57;102191.72;;;5.33;100.00
74065;BME280;62421;51.412;5.432;2023-04-30T03:58:23;102190.94;;;5.29;100.00
74065;BME280;62421;51.412;5.432;2023-04-30T04:00:48;102184.72;;;5.29;100.00
74065;BME280;62421;51.412;5.432;2023-04-30T04:03:14;102188.31;;;5.28;100.00
74065;BME280;62421;51.412;5.432;2023-04-30T04:05:40;102185.69;;;5.26;100.00
74065;BME280;62421;51.412;5.432;2023-04-30T04:08:06;102195.47;;;5.26;100.00
74065;BME280;62421;51.412;5.432;2023-04-30T04:10:33;102199.94;;;5.25;100.00
74065;BME280;62421;51.412;5.432;2023-04-30T04:12:58;102197.28;;;5.25;100.00
74065;BME280;62421;51.412;5.432;2023-04-30T04:15:24;102196.34;;;5.26;100.00
74065;BME280;62421;51.412;5.432;2023-04-30T04:17:49;102202.59;;;5.25;100.00
74065;BME280;62421;51.412;5.432;2023-04-30T04:20:15;102203.47;;;5.26;100.00
74065;BME280;62421;51.412;5.432;2023-04-30T04:22:41;102213.19;;;5.27;100.00
74065;BME280;62421;51.412;5.432;2023-04-30T04:25:06;102209.63;;;5.28;100.00
74065;BME280;62421;51.412;5.432;2023-04-30T04:27:32;102207.81;;;5.30;100.00
74065;BME280;62421;51.412;5.432;2023-04-30T04:29:58;102218.38;;;5.33;100.00
74065;BME280;62421;51.412;5.432;2023-04-30T04:32:23;102212.97;;;5.36;100.00
74065;BME280;62421;51.412;5.432;2023-04-30T04:34:48;102218.22;;;5.38;100.00
74065;BME280;62421;51.412;5.432;2023-04-30T04:37:14;102213.69;;;5.43;100.00
74065;BME280;62421;51.412;5.432;2023-04-30T04:39:41;102227.81;;;5.46;100.00
74065;BME280;62421;51.412;5.432;2023-04-30T04:42:07;102221.50;;;5.49;100.00
74065;BME280;62421;51.412;5.432;2023-04-30T04:44:32;102220.53;;;5.51;100.00
74065;BME280;62421;51.412;5.432;2023-04-30T04:46:57;102223.19;;;5.53;100.00
74065;BME280;62421;51.412;5.432;2023-04-30T04:49:23;102230.13;;;5.59;100.00
74065;BME280;62421;51.412;5.432;2023-04-30T04:51:48;102230.75;;;5.68;100.00
74065;BME280;62421;51.412;5.432;2023-04-30T04:54:14;102223.16;;;5.86;100.00
74065;BME280;62421;51.412;5.432;2023-04-30T04:56:39;102225.41;;;6.01;100.00
74065;BME280;62421;51.412;5.432;2023-04-30T04:59:04;102229.63;;;6.08;100.00
74065;BME280;62421;51.412;5.432;2023-04-30T05:01:30;102231.22;;;6.15;100.00
74065;BME280;62421;51.412;5.432;2023-04-30T05:03:55;102232.25;;;6.10;100.00
74065;BME280;62421;51.412;5.432;2023-04-30T05:06:21;102230.56;;;6.07;100.00
74065;BME280;62421;51.412;5.432;2023-04-30T05:08:46;102226.91;;;6.11;100.00
74065;BME280;62421;51.412;5.432;2023-04-30T05:11:11;102224.94;;;6.17;100.00
74065;BME280;62421;51.412;5.432;2023-04-30T05:13:37;102221.56;;;6.11;100.00
74065;BME280;62421;51.412;5.432;2023-04-30T05:16:02;102220.91;;;6.03;100.00
74065;BME280;62421;51.412;5.432;2023-04-30T05:18:28;102222.78;;;6.00;100.00
74065;BME280;62421;51.412;5.432;2023-04-30T05:20:53;102226.38;;;5.99;100.00
74065;BME280;62421;51.412;5.432;2023-04-30T05:23:18;102221.88;;;6.01;100.00
74065;BME280;62421;51.412;5.432;2023-04-30T05:25:44;102220.91;;;6.03;100.00
74065;BME280;62421;51.412;5.432;2023-04-30T05:28:09;102223.47;;;6.06;100.00
74065;BME280;62421;51.412;5.432;2023-04-30T05:30:35;102227.88;;;6.09;100.00
74065;BME280;62421;51.412;5.432;2023-04-30T05:33:00;102226.03;;;6.11;100.00
74065;BME280;62421;51.412;5.432;2023-04-30T05:35:26;102216.13;;;6.14;100.00
74065;BME280;62421;51.412;5.432;2023-04-30T05:37:51;102228.41;;;6.20;100.00
74065;BME280;62421;51.412;5.432;2023-04-30T05:40:17;102235.41;;;6.24;100.00
74065;BME280;62421;51.412;5.432;2023-04-30T05:42:42;102230.84;;;6.28;100.00
74065;BME280;62421;51.412;5.432;2023-04-30T05:45:09;102225.44;;;6.31;100.00
74065;BME280;62421;51.412;5.432;2023-04-30T05:47:35;102230.63;;;6.35;100.00
74065;BME280;62421;51.412;5.432;2023-04-30T05:50:00;102226.91;;;6.41;100.00
74065;BME280;62421;51.412;5.432;2023-04-30T05:52:25;102225.81;;;6.47;100.00
74065;BME280;62421;51.412;5.432;2023-04-30T05:54:51;102231.09;;;6.50;100.00
74065;BME280;62421;51.412;5.432;2023-04-30T05:57:16;102239.81;;;6.55;100.00
74065;BME280;62421;51.412;5.432;2023-04-30T05:59:41;102235.25;;;6.59;100.00
74065;BME280;62421;51.412;5.432;2023-04-30T06:02:07;102226.28;;;6.61;100.00
74065;BME280;62421;51.412;5.432;2023-04-30T06:04:33;102221.72;;;6.65;100.00
74065;BME280;62421;51.412;5.432;2023-04-30T06:06:58;102223.34;;;6.69;100.00
74065;BME280;62421;51.412;5.432;2023-04-30T06:09:23;102225.78;;;6.76;100.00
74065;BME280;62421;51.412;5.432;2023-04-30T06:11:49;102216.78;;;6.79;100.00
74065;BME280;62421;51.412;5.432;2023-04-30T06:14:16;102223.63;;;6.88;100.00
74065;BME280;62421;51.412;5.432;2023-04-30T06:16:43;102220.81;;;6.92;100.00
74065;BME280;62421;51.412;5.432;2023-04-30T06:19:09;102214.50;;;6.95;100.00
74065;BME280;62421;51.412;5.432;2023-04-30T06:21:35;102214.44;;;6.96;100.00
74065;BME280;62421;51.412;5.432;2023-04-30T06:24:00;102213.41;;;7.01;100.00
74065;BME280;62421;51.412;5.432;2023-04-30T06:26:26;102213.22;;;7.07;100.00
74065;BME280;62421;51.412;5.432;2023-04-30T06:28:51;102219.25;;;7.12;100.00
74065;BME280;62421;51.412;5.432;2023-04-30T06:31:17;102211.16;;;7.15;100.00
74065;BME280;62421;51.412;5.432;2023-04-30T06:33:42;102219.97;;;7.18;100.00
74065;BME280;62421;51.412;5.432;2023-04-30T06:36:07;102224.97;;;7.28;100.00
74065;BME280;62421;51.412;5.432;2023-04-30T06:38:33;102222.16;;;7.32;100.00
74065;BME280;62421;51.412;5.432;2023-04-30T06:40:58;102213.97;;;7.37;100.00
74065;BME280;62421;51.412;5.432;2023-04-30T06:43:23;102216.44;;;7.43;100.00
74065;BME280;62421;51.412;5.432;2023-04-30T06:45:49;102220.75;;;7.47;100.00
74065;BME280;62421;51.412;5.432;2023-04-30T06:48:14;102222.25;;;7.54;100.00
74065;BME280;62421;51.412;5.432;2023-04-30T06:50:39;102227.34;;;7.62;100.00
74065;BME280;62421;51.412;5.432;2023-04-30T06:53:15;102216.34;;;7.70;100.00
74065;BME280;62421;51.412;5.432;2023-04-30T06:55:40;102225.84;;;7.78;100.00
74065;BME280;62421;51.412;5.432;2023-04-30T06:58:06;102230.97;;;7.85;100.00
74065;BME280;62421;51.412;5.432;2023-04-30T07:00:35;102231.63;;;7.91;100.00
74065;BME280;62421;51.412;5.432;2023-04-30T07:03:00;102227.69;;;8.02;100.00
74065;BME280;62421;51.412;5.432;2023-04-30T07:05:28;102217.56;;;8.10;100.00
74065;BME280;62421;51.412;5.432;2023-04-30T07:07:53;102219.16;;;8.15;100.00
74065;BME280;62421;51.412;5.432;2023-04-30T07:10:19;102215.44;;;8.19;100.00
74065;BME280;62421;51.412;5.432;2023-04-30T07:12:44;102220.38;;;8.30;100.00
74065;BME280;62421;51.412;5.432;2023-04-30T07:15:10;102212.69;;;8.45;100.00
74065;BME280;62421;51.412;5.432;2023-04-30T07:17:36;102214.94;;;8.55;100.00
74065;BME280;62421;51.412;5.432;2023-04-30T07:20:02;102212.25;;;8.55;100.00
74065;BME280;62421;51.412;5.432;2023-04-30T07:22:29;102218.38;;;8.59;100.00
74065;BME280;62421;51.412;5.432;2023-04-30T07:24:54;102204.13;;;8.58;100.00
74065;BME280;62421;51.412;5.432;2023-04-30T07:27:20;102214.66;;;8.63;100.00
74065;BME280;62421;51.412;5.432;2023-04-30T07:29:45;102220.88;;;8.64;100.00
74065;BME280;62421;51.412;5.432;2023-04-30T07:32:11;102207.34;;;8.67;100.00
74065;BME280;62421;51.412;5.432;2023-04-30T07:34:36;102209.41;;;8.82;100.00
74065;BME280;62421;51.412;5.432;2023-04-30T07:37:02;102213.19;;;8.98;100.00
74065;BME280;62421;51.412;5.432;2023-04-30T07:39:28;102203.84;;;9.09;100.00
74065;BME280;62421;51.412;5.432;2023-04-30T07:41:53;102210.66;;;9.16;100.00
74065;BME280;62421;51.412;5.432;2023-04-30T07:44:18;102214.25;;;9.16;100.00
74065;BME280;62421;51.412;5.432;2023-04-30T07:46:45;102204.19;;;9.21;100.00
74065;BME280;62421;51.412;5.432;2023-04-30T07:49:11;102211.78;;;9.32;100.00
74065;BME280;62421;51.412;5.432;2023-04-30T07:51:36;102211.31;;;9.43;99.26
74065;BME280;62421;51.412;5.432;2023-04-30T07:54:03;102205.22;;;9.60;99.24
74065;BME280;62421;51.412;5.432;2023-04-30T07:56:28;102205.66;;;9.70;96.85
74065;BME280;62421;51.412;5.432;2023-04-30T07:58:54;102204.38;;;9.78;96.06
74065;BME280;62421;51.412;5.432;2023-04-30T08:01:19;102210.78;;;9.95;94.96
74065;BME280;62421;51.412;5.432;2023-04-30T08:03:45;102207.38;;;10.10;95.74
74065;BME280;62421;51.412;5.432;2023-04-30T08:06:10;102208.78;;;10.19;92.06
74065;BME280;62421;51.412;5.432;2023-04-30T08:08:36;102215.53;;;10.28;93.76
74065;BME280;62421;51.412;5.432;2023-04-30T08:11:01;102212.53;;;10.35;91.83
74065;BME280;62421;51.412;5.432;2023-04-30T08:13:27;102209.56;;;10.41;92.99
74065;BME280;62421;51.412;5.432;2023-04-30T08:15:52;102214.81;;;10.43;93.97
74065;BME280;62421;51.412;5.432;2023-04-30T08:18:17;102207.72;;;10.42;93.18
74065;BME280;62421;51.412;5.432;2023-04-30T08:20:43;102211.50;;;10.38;93.38
74065;BME280;62421;51.412;5.432;2023-04-30T08:23:08;102212.47;;;10.37;94.43
74065;BME280;62421;51.412;5.432;2023-04-30T08:25:33;102206.94;;;10.40;94.27
74065;BME280;62421;51.412;5.432;2023-04-30T08:27:59;102211.28;;;10.42;94.70
74065;BME280;62421;51.412;5.432;2023-04-30T08:30:24;102207.78;;;10.59;92.22
74065;BME280;62421;51.412;5.432;2023-04-30T08:32:50;102210.75;;;10.72;93.72
74065;BME280;62421;51.412;5.432;2023-04-30T08:35:16;102200.88;;;10.73;94.28
74065;BME280;62421;51.412;5.432;2023-04-30T08:37:41;102201.28;;;10.82;93.29
74065;BME280;62421;51.412;5.432;2023-04-30T08:40:07;102202.19;;;11.00;91.13
74065;BME280;62421;51.412;5.432;2023-04-30T08:42:36;102202.50;;;11.12;90.97
74065;BME280;62421;51.412;5.432;2023-04-30T08:45:07;102198.47;;;11.20;90.51
74065;BME280;62421;51.412;5.432;2023-04-30T08:47:35;102192.94;;;11.23;90.07
74065;BME280;62421;51.412;5.432;2023-04-30T08:50:01;102199.75;;;11.31;87.95
74065;BME280;62421;51.412;5.432;2023-04-30T08:52:28;102197.22;;;11.45;87.64
74065;BME280;62421;51.412;5.432;2023-04-30T08:54:56;102197.50;;;11.56;87.64
74065;BME280;62421;51.412;5.432;2023-04-30T08:57:21;102196.69;;;11.72;85.74
74065;BME280;62421;51.412;5.432;2023-04-30T08:59:47;102199.84;;;11.80;90.01
74065;BME280;62421;51.412;5.432;2023-04-30T09:02:12;102193.44;;;11.82;87.35
74065;BME280;62421;51.412;5.432;2023-04-30T09:04:38;102195.34;;;11.80;85.70
74065;BME280;62421;51.412;5.432;2023-04-30T09:07:03;102194.88;;;11.90;87.83
74065;BME280;62421;51.412;5.432;2023-04-30T09:09:36;102189.84;;;11.99;86.48
74065;BME280;62421;51.412;5.432;2023-04-30T09:12:22;102179.63;;;12.06;84.74
74065;BME280;62421;51.412;5.432;2023-04-30T09:17:24;102179.38;;;12.11;81.46
74065;BME280;62421;51.412;5.432;2023-04-30T09:19:51;102177.97;;;12.19;83.11
74065;BME280;62421;51.412;5.432;2023-04-30T09:22:21;102176.44;;;12.31;80.62
74065;BME280;62421;51.412;5.432;2023-04-30T09:24:48;102183.28;;;12.37;82.48
74065;BME280;62421;51.412;5.432;2023-04-30T09:27:19;102183.13;;;12.40;77.95
74065;BME280;62421;51.412;5.432;2023-04-30T09:29:45;102179.13;;;12.47;80.30
74065;BME280;62421;51.412;5.432;2023-04-30T09:32:11;102178.84;;;12.52;79.42
74065;BME280;62421;51.412;5.432;2023-04-30T09:34:36;102171.84;;;12.65;74.73
74065;BME280;62421;51.412;5.432;2023-04-30T09:37:02;102175.44;;;12.80;73.17
74065;BME280;62421;51.412;5.432;2023-04-30T09:39:28;102169.69;;;12.86;71.97
74065;BME280;62421;51.412;5.432;2023-04-30T09:42:09;102177.41;;;12.92;77.36
74065;BME280;62421;51.412;5.432;2023-04-30T09:44:39;102177.75;;;13.02;72.99
74065;BME280;62421;51.412;5.432;2023-04-30T09:47:18;102182.81;;;13.22;71.47
74065;BME280;62421;51.412;5.432;2023-04-30T09:49:49;102185.44;;;13.24;69.66
74065;BME280;62421;51.412;5.432;2023-04-30T09:52:17;102162.22;;;13.21;70.82
74065;BME280;62421;51.412;5.432;2023-04-30T09:54:44;102168.19;;;13.26;68.57
74065;BME280;62421;51.412;5.432;2023-04-30T09:57:12;102178.19;;;13.40;73.37
74065;BME280;62421;51.412;5.432;2023-04-30T09:59:43;102178.41;;;13.51;68.79
74065;BME280;62421;51.412;5.432;2023-04-30T10:02:13;102169.31;;;13.52;74.80
74065;BME280;62421;51.412;5.432;2023-04-30T10:04:43;102167.59;;;13.51;70.98
74065;BME280;62421;51.412;5.432;2023-04-30T10:07:14;102160.44;;;13.50;70.37
74065;BME280;62421;51.412;5.432;2023-04-30T10:09:53;102162.78;;;13.57;73.77
74065;BME280;62421;51.412;5.432;2023-04-30T10:12:21;102165.41;;;13.72;71.94
74065;BME280;62421;51.412;5.432;2023-04-30T10:14:54;102162.41;;;13.77;67.93
74065;BME280;62421;51.412;5.432;2023-04-30T10:17:25;102155.38;;;13.75;67.64
74065;BME280;62421;51.412;5.432;2023-04-30T10:19:54;102156.63;;;13.83;68.02
74065;BME280;62421;51.412;5.432;2023-04-30T10:22:21;102152.97;;;13.84;66.96
74065;BME280;62421;51.412;5.432;2023-04-30T10:24:47;102162.22;;;13.95;67.17
74065;BME280;62421;51.412;5.432;2023-04-30T10:27:12;102151.13;;;13.99;65.95
74065;BME280;62421;51.412;5.432;2023-04-30T10:29:38;102150.34;;;13.97;68.11
74065;BME280;62421;51.412;5.432;2023-04-30T10:32:04;102144.47;;;14.05;66.87
74065;BME280;62421;51.412;5.432;2023-04-30T10:34:52;102134.44;;;14.07;66.54
74065;BME280;62421;51.412;5.432;2023-04-30T10:37:46;102126.34;;;14.07;67.99
74065;BME280;62421;51.412;5.432;2023-04-30T10:40:13;102135.75;;;14.28;69.19
74065;BME280;62421;51.412;5.432;2023-04-30T10:42:48;102131.84;;;14.32;64.98
74065;BME280;62421;51.412;5.432;2023-04-30T10:45:15;102135.44;;;14.33;66.17
74065;BME280;62421;51.412;5.432;2023-04-30T10:47:42;102128.75;;;14.39;63.30
74065;BME280;62421;51.412;5.432;2023-04-30T10:50:10;102120.84;;;14.36;63.80
74065;BME280;62421;51.412;5.432;2023-04-30T10:52:37;102121.22;;;14.44;63.16
74065;BME280;62421;51.412;5.432;2023-04-30T10:55:09;102107.78;;;14.57;66.99
74065;BME280;62421;51.412;5.432;2023-04-30T10:57:41;102106.53;;;14.75;66.14
74065;BME280;62421;51.412;5.432;2023-04-30T11:02:40;102104.09;;;14.85;64.33
74065;BME280;62421;51.412;5.432;2023-04-30T11:05:11;102105.72;;;14.87;65.50
74065;BME280;62421;51.412;5.432;2023-04-30T11:07:48;102096.00;;;14.98;65.29
74065;BME280;62421;51.412;5.432;2023-04-30T11:10:14;102093.09;;;15.13;63.60
74065;BME280;62421;51.412;5.432;2023-04-30T11:12:43;102094.94;;;15.26;60.15
74065;BME280;62421;51.412;5.432;2023-04-30T11:15:13;102093.94;;;15.27;60.04
74065;BME280;62421;51.412;5.432;2023-04-30T11:17:42;102087.69;;;15.26;58.97
74065;BME280;62421;51.412;5.432;2023-04-30T11:20:11;102079.13;;;15.20;59.53
74065;BME280;62421;51.412;5.432;2023-04-30T11:22:37;102086.25;;;15.21;60.41
74065;BME280;62421;51.412;5.432;2023-04-30T11:25:04;102076.44;;;15.20;59.21
74065;BME280;62421;51.412;5.432;2023-04-30T11:27:32;102077.53;;;15.30;61.39
74065;BME280;62421;51.412;5.432;2023-04-30T11:29:58;102075.25;;;15.36;58.26
74065;BME280;62421;51.412;5.432;2023-04-30T11:32:31;102071.88;;;15.46;60.01
74065;BME280;62421;51.412;5.432;2023-04-30T11:34:59;102063.75;;;15.59;56.67
74065;BME280;62421;51.412;5.432;2023-04-30T11:37:36;102057.66;;;15.68;60.89
74065;BME280;62421;51.412;5.432;2023-04-30T11:40:06;102046.72;;;15.82;61.31
74065;BME280;62421;51.412;5.432;2023-04-30T11:42:33;102048.28;;;15.97;60.38
74065;BME280;62421;51.412;5.432;2023-04-30T11:45:05;102041.97;;;16.10;58.98
74065;BME280;62421;51.412;5.432;2023-04-30T11:47:45;102039.38;;;16.08;59.76
74065;BME280;62421;51.412;5.432;2023-04-30T11:50:21;102051.34;;;15.93;59.05
74065;BME280;62421;51.412;5.432;2023-04-30T11:52:55;102039.41;;;15.95;59.21
74065;BME280;62421;51.412;5.432;2023-04-30T11:55:25;102044.56;;;16.11;60.50
74065;BME280;62421;51.412;5.432;2023-04-30T11:57:53;102038.56;;;16.19;56.31
74065;BME280;62421;51.412;5.432;2023-04-30T12:00:27;102025.53;;;16.00;55.12
74065;BME280;62421;51.412;5.432;2023-04-30T12:02:53;102034.00;;;15.95;56.98
74065;BME280;62421;51.412;5.432;2023-04-30T12:05:19;102037.19;;;16.13;58.30
74065;BME280;62421;51.412;5.432;2023-04-30T12:07:56;102032.72;;;16.36;60.98
74065;BME280;62421;51.412;5.432;2023-04-30T12:10:23;102035.91;;;16.54;55.01
74065;BME280;62421;51.412;5.432;2023-04-30T12:12:51;102029.50;;;16.55;54.49
74065;BME280;62421;51.412;5.432;2023-04-30T12:15:21;102027.16;;;16.62;54.27
74065;BME280;62421;51.412;5.432;2023-04-30T12:17:50;102027.09;;;16.75;58.06
74065;BME280;62421;51.412;5.432;2023-04-30T12:20:16;102019.53;;;16.91;55.62
74065;BME280;62421;51.412;5.432;2023-04-30T12:22:43;102022.41;;;17.12;55.18
74065;BME280;62421;51.412;5.432;2023-04-30T12:25:13;102021.28;;;17.26;52.32
74065;BME280;62421;51.412;5.432;2023-04-30T12:27:44;102017.69;;;17.03;53.23
74065;BME280;62421;51.412;5.432;2023-04-30T12:30:11;102019.78;;;16.99;53.40
74065;BME280;62421;51.412;5.432;2023-04-30T12:32:44;102011.41;;;17.14;54.50
74065;BME280;62421;51.412;5.432;2023-04-30T12:35:17;102014.63;;;17.30;53.26
74065;BME280;62421;51.412;5.432;2023-04-30T12:37:45;102004.63;;;17.42;53.39
74065;BME280;62421;51.412;5.432;2023-04-30T12:40:13;101998.09;;;17.56;53.94
74065;BME280;62421;51.412;5.432;2023-04-30T12:42:43;101990.78;;;17.68;49.85
74065;BME280;62421;51.412;5.432;2023-04-30T12:45:09;101992.38;;;17.59;51.80
74065;BME280;62421;51.412;5.432;2023-04-30T12:47:39;101994.84;;;17.51;52.37
74065;BME280;62421;51.412;5.432;2023-04-30T12:50:08;102000.44;;;17.38;53.79
74065;BME280;62421;51.412;5.432;2023-04-30T12:52:33;101999.69;;;17.13;48.69
74065;BME280;62421;51.412;5.432;2023-04-30T12:55:15;102001.06;;;17.19;53.13
74065;BME280;62421;51.412;5.432;2023-04-30T12:57:40;101981.53;;;17.48;52.57
74065;BME280;62421;51.412;5.432;2023-04-30T13:00:06;101991.50;;;17.81;51.74
74065;BME280;62421;51.412;5.432;2023-04-30T13:02:32;101985.81;;;17.95;51.43
74065;BME280;62421;51.412;5.432;2023-04-30T13:04:58;101972.94;;;17.97;51.93